sensor_id;sensor_type;location;lat;lon;timestamp;P1;durP1;ratioP1;P2;durP2;ratioP2
74080;SDS011;62438;52.228;6.864;2022-12-11T00:01:47;45.88;;;11.15;;
74080;SDS011;62438;52.228;6.864;2022-12-11T00:03:47;53.53;;;12.10;;
74080;SDS011;62438;52.228;6.864;2022-12-11T00:05:48;50.67;;;11.40;;
74080;SDS011;62438;52.228;6.864;2022-12-11T00:07:48;46.90;;;12.00;;
74080;SDS011;62438;52.228;6.864;2022-12-11T00:09:49;57.10;;;10.95;;
74080;SDS011;62438;52.228;6.864;2022-12-11T00:11:49;36.50;;;9.25;;
74080;SDS011;62438;52.228;6.864;2022-12-11T00:13:50;46.35;;;10.32;;
74080;SDS011;62438;52.228;6.864;2022-12-11T00:15:50;38.10;;;10.23;;
74080;SDS011;62438;52.228;6.864;2022-12-11T00:17:50;34.28;;;9.75;;
74080;SDS011;62438;52.228;6.864;2022-12-11T00:19:51;37.92;;;10.20;;
74080;SDS011;62438;52.228;6.864;2022-12-11T00:21:51;32.92;;;9.02;;
74080;SDS011;62438;52.228;6.864;2022-12-11T00:23:52;37.83;;;9.63;;
74080;SDS011;62438;52.228;6.864;2022-12-11T00:25:52;47.90;;;10.30;;
74080;SDS011;62438;52.228;6.864;2022-12-11T00:27:52;38.28;;;9.82;;
74080;SDS011;62438;52.228;6.864;2022-12-11T00:29:53;35.20;;;10.43;;
74080;SDS011;62438;52.228;6.864;2022-12-11T00:31:53;37.78;;;10.27;;
74080;SDS011;62438;52.228;6.864;2022-12-11T00:33:54;39.47;;;10.20;;
74080;SDS011;62438;52.228;6.864;2022-12-11T00:35:54;35.55;;;10.38;;
74080;SDS011;62438;52.228;6.864;2022-12-11T00:37:54;34.72;;;8.52;;
74080;SDS011;62438;52.228;6.864;2022-12-11T00:39:55;36.22;;;10.02;;
74080;SDS011;62438;52.228;6.864;2022-12-11T00:41:55;37.88;;;9.65;;
74080;SDS011;62438;52.228;6.864;2022-12-11T00:43:57;36.00;;;10.35;;
74080;SDS011;62438;52.228;6.864;2022-12-11T00:45:57;35.67;;;10.05;;
74080;SDS011;62438;52.228;6.864;2022-12-11T00:47:57;43.83;;;11.05;;
74080;SDS011;62438;52.228;6.864;2022-12-11T00:49:58;34.47;;;10.02;;
74080;SDS011;62438;52.228;6.864;2022-12-11T00:51:58;33.20;;;8.77;;
74080;SDS011;62438;52.228;6.864;2022-12-11T00:53:59;39.80;;;9.95;;
74080;SDS011;62438;52.228;6.864;2022-12-11T00:55:59;32.88;;;8.55;;
74080;SDS011;62438;52.228;6.864;2022-12-11T00:57:59;35.30;;;9.80;;
74080;SDS011;62438;52.228;6.864;2022-12-11T01:00:00;38.97;;;10.25;;
74080;SDS011;62438;52.228;6.864;2022-12-11T01:02:00;33.83;;;9.68;;
74080;SDS011;62438;52.228;6.864;2022-12-11T01:04:01;44.45;;;12.40;;
74080;SDS011;62438;52.228;6.864;2022-12-11T01:06:01;40.47;;;11.75;;
74080;SDS011;62438;52.228;6.864;2022-12-11T01:08:03;55.38;;;12.90;;
74080;SDS011;62438;52.228;6.864;2022-12-11T01:10:04;48.35;;;11.25;;
74080;SDS011;62438;52.228;6.864;2022-12-11T01:12:23;44.80;;;11.40;;
74080;SDS011;62438;52.228;6.864;2022-12-11T01:14:23;42.15;;;11.20;;
74080;SDS011;62438;52.228;6.864;2022-12-11T01:16:25;41.25;;;10.18;;
74080;SDS011;62438;52.228;6.864;2022-12-11T01:18:25;44.42;;;11.02;;
74080;SDS011;62438;52.228;6.864;2022-12-11T01:20:26;45.53;;;11.77;;
74080;SDS011;62438;52.228;6.864;2022-12-11T01:22:27;40.72;;;10.00;;
74080;SDS011;62438;52.228;6.864;2022-12-11T01:24:27;42.13;;;10.85;;
74080;SDS011;62438;52.228;6.864;2022-12-11T01:26:28;36.75;;;10.68;;
74080;SDS011;62438;52.228;6.864;2022-12-11T01:28:29;46.17;;;11.77;;
74080;SDS011;62438;52.228;6.864;2022-12-11T01:30:30;40.13;;;9.75;;
74080;SDS011;62438;52.228;6.864;2022-12-11T01:32:30;47.67;;;10.65;;
74080;SDS011;62438;52.228;6.864;2022-12-11T01:34:31;46.15;;;11.00;;
74080;SDS011;62438;52.228;6.864;2022-12-11T01:36:32;37.53;;;9.85;;
74080;SDS011;62438;52.228;6.864;2022-12-11T01:38:32;33.60;;;9.80;;
74080;SDS011;62438;52.228;6.864;2022-12-11T01:40:33;43.05;;;10.60;;
74080;SDS011;62438;52.228;6.864;2022-12-11T01:42:33;38.47;;;10.35;;
74080;SDS011;62438;52.228;6.864;2022-12-11T01:46:35;38.60;;;9.60;;
74080;SDS011;62438;52.228;6.864;2022-12-11T01:48:35;40.42;;;11.20;;
74080;SDS011;62438;52.228;6.864;2022-12-11T01:50:59;45.97;;;11.05;;
74080;SDS011;62438;52.228;6.864;2022-12-11T01:53:01;47.28;;;10.65;;
74080;SDS011;62438;52.228;6.864;2022-12-11T01:55:04;40.15;;;10.32;;
74080;SDS011;62438;52.228;6.864;2022-12-11T01:57:06;49.10;;;11.15;;
74080;SDS011;62438;52.228;6.864;2022-12-11T01:59:08;41.25;;;9.15;;
74080;SDS011;62438;52.228;6.864;2022-12-11T02:01:11;40.03;;;10.07;;
74080;SDS011;62438;52.228;6.864;2022-12-11T02:03:17;34.80;;;10.73;;
74080;SDS011;62438;52.228;6.864;2022-12-11T02:05:18;42.08;;;11.05;;
74080;SDS011;62438;52.228;6.864;2022-12-11T02:07:18;43.60;;;9.88;;
74080;SDS011;62438;52.228;6.864;2022-12-11T02:09:29;38.72;;;8.95;;
74080;SDS011;62438;52.228;6.864;2022-12-11T02:13:53;42.70;;;10.48;;
74080;SDS011;62438;52.228;6.864;2022-12-11T02:20:33;36.08;;;8.73;;
74080;SDS011;62438;52.228;6.864;2022-12-11T02:29:05;38.08;;;9.77;;
74080;SDS011;62438;52.228;6.864;2022-12-11T02:33:26;38.63;;;10.82;;
74080;SDS011;62438;52.228;6.864;2022-12-11T02:35:39;46.75;;;10.73;;
74080;SDS011;62438;52.228;6.864;2022-12-11T02:37:42;46.72;;;10.82;;
74080;SDS011;62438;52.228;6.864;2022-12-11T02:39:45;41.58;;;11.23;;
74080;SDS011;62438;52.228;6.864;2022-12-11T02:41:50;44.00;;;10.77;;
74080;SDS011;62438;52.228;6.864;2022-12-11T02:43:50;45.78;;;11.10;;
74080;SDS011;62438;52.228;6.864;2022-12-11T02:45:52;45.97;;;11.00;;
74080;SDS011;62438;52.228;6.864;2022-12-11T02:47:53;43.22;;;10.55;;
74080;SDS011;62438;52.228;6.864;2022-12-11T02:49:57;46.15;;;11.48;;
74080;SDS011;62438;52.228;6.864;2022-12-11T02:52:01;41.53;;;11.15;;
74080;SDS011;62438;52.228;6.864;2022-12-11T02:54:04;41.70;;;11.07;;
74080;SDS011;62438;52.228;6.864;2022-12-11T02:59:03;51.60;;;11.85;;
74080;SDS011;62438;52.228;6.864;2022-12-11T03:01:22;44.47;;;11.18;;
74080;SDS011;62438;52.228;6.864;2022-12-11T03:03:23;51.03;;;10.90;;
74080;SDS011;62438;52.228;6.864;2022-12-11T03:05:23;45.67;;;10.55;;
74080;SDS011;62438;52.228;6.864;2022-12-11T03:07:26;44.97;;;10.57;;
74080;SDS011;62438;52.228;6.864;2022-12-11T03:09:32;42.70;;;11.27;;
74080;SDS011;62438;52.228;6.864;2022-12-11T03:11:32;44.20;;;11.65;;
74080;SDS011;62438;52.228;6.864;2022-12-11T03:13:32;45.80;;;11.40;;
74080;SDS011;62438;52.228;6.864;2022-12-11T03:20:11;50.55;;;11.13;;
74080;SDS011;62438;52.228;6.864;2022-12-11T03:24:27;49.60;;;11.35;;
74080;SDS011;62438;52.228;6.864;2022-12-11T03:26:35;59.92;;;12.57;;
74080;SDS011;62438;52.228;6.864;2022-12-11T03:28:48;47.42;;;11.18;;
74080;SDS011;62438;52.228;6.864;2022-12-11T03:30:55;54.60;;;12.50;;
74080;SDS011;62438;52.228;6.864;2022-12-11T03:32:57;44.83;;;11.60;;
74080;SDS011;62438;52.228;6.864;2022-12-11T03:35:07;51.25;;;11.82;;
74080;SDS011;62438;52.228;6.864;2022-12-11T03:37:13;51.20;;;10.90;;
74080;SDS011;62438;52.228;6.864;2022-12-11T03:39:15;51.60;;;11.80;;
74080;SDS011;62438;52.228;6.864;2022-12-11T03:41:21;50.80;;;11.20;;
74080;SDS011;62438;52.228;6.864;2022-12-11T03:43:24;45.17;;;10.75;;
74080;SDS011;62438;52.228;6.864;2022-12-11T03:45:27;47.00;;;12.27;;
74080;SDS011;62438;52.228;6.864;2022-12-11T03:47:29;54.30;;;11.88;;
74080;SDS011;62438;52.228;6.864;2022-12-11T03:49:33;52.20;;;10.93;;
74080;SDS011;62438;52.228;6.864;2022-12-11T03:51:37;44.88;;;10.75;;
74080;SDS011;62438;52.228;6.864;2022-12-11T03:53:38;46.40;;;10.70;;
74080;SDS011;62438;52.228;6.864;2022-12-11T03:55:39;57.78;;;12.13;;
74080;SDS011;62438;52.228;6.864;2022-12-11T03:57:40;45.90;;;10.73;;
74080;SDS011;62438;52.228;6.864;2022-12-11T03:59:41;47.50;;;12.07;;
74080;SDS011;62438;52.228;6.864;2022-12-11T04:01:41;42.78;;;11.57;;
74080;SDS011;62438;52.228;6.864;2022-12-11T04:03:42;45.20;;;11.15;;
74080;SDS011;62438;52.228;6.864;2022-12-11T04:05:43;42.13;;;11.90;;
74080;SDS011;62438;52.228;6.864;2022-12-11T04:07:45;50.97;;;11.35;;
74080;SDS011;62438;52.228;6.864;2022-12-11T04:09:45;44.47;;;11.15;;
74080;SDS011;62438;52.228;6.864;2022-12-11T04:11:46;52.45;;;11.30;;
74080;SDS011;62438;52.228;6.864;2022-12-11T04:13:46;55.10;;;11.90;;
74080;SDS011;62438;52.228;6.864;2022-12-11T04:16:07;48.63;;;10.30;;
74080;SDS011;62438;52.228;6.864;2022-12-11T04:18:08;46.97;;;10.55;;
74080;SDS011;62438;52.228;6.864;2022-12-11T04:20:28;39.17;;;10.35;;
74080;SDS011;62438;52.228;6.864;2022-12-11T04:22:47;45.45;;;10.32;;
74080;SDS011;62438;52.228;6.864;2022-12-11T04:25:06;35.83;;;11.40;;
74080;SDS011;62438;52.228;6.864;2022-12-11T04:27:07;44.97;;;11.13;;
74080;SDS011;62438;52.228;6.864;2022-12-11T04:29:07;40.17;;;9.82;;
74080;SDS011;62438;52.228;6.864;2022-12-11T04:31:15;45.45;;;10.90;;
74080;SDS011;62438;52.228;6.864;2022-12-11T04:33:17;41.92;;;10.85;;
74080;SDS011;62438;52.228;6.864;2022-12-11T04:35:17;45.13;;;10.93;;
74080;SDS011;62438;52.228;6.864;2022-12-11T04:37:19;43.33;;;10.75;;
74080;SDS011;62438;52.228;6.864;2022-12-11T04:39:19;36.08;;;9.65;;
74080;SDS011;62438;52.228;6.864;2022-12-11T04:41:19;36.90;;;10.77;;
74080;SDS011;62438;52.228;6.864;2022-12-11T04:43:20;44.78;;;10.88;;
74080;SDS011;62438;52.228;6.864;2022-12-11T04:45:20;42.75;;;11.63;;
74080;SDS011;62438;52.228;6.864;2022-12-11T04:47:20;43.30;;;11.65;;
74080;SDS011;62438;52.228;6.864;2022-12-11T04:49:21;46.75;;;11.32;;
74080;SDS011;62438;52.228;6.864;2022-12-11T04:51:21;43.80;;;11.38;;
74080;SDS011;62438;52.228;6.864;2022-12-11T04:53:22;37.25;;;10.50;;
74080;SDS011;62438;52.228;6.864;2022-12-11T04:55:23;38.35;;;10.13;;
74080;SDS011;62438;52.228;6.864;2022-12-11T04:57:23;41.38;;;11.18;;
74080;SDS011;62438;52.228;6.864;2022-12-11T04:59:23;46.00;;;10.50;;
74080;SDS011;62438;52.228;6.864;2022-12-11T05:01:24;36.55;;;9.65;;
74080;SDS011;62438;52.228;6.864;2022-12-11T05:03:24;40.13;;;10.38;;
74080;SDS011;62438;52.228;6.864;2022-12-11T05:05:25;39.92;;;10.40;;
74080;SDS011;62438;52.228;6.864;2022-12-11T05:07:25;38.90;;;9.52;;
74080;SDS011;62438;52.228;6.864;2022-12-11T05:09:25;40.47;;;10.57;;
74080;SDS011;62438;52.228;6.864;2022-12-11T05:11:26;41.63;;;11.77;;
74080;SDS011;62438;52.228;6.864;2022-12-11T05:13:27;41.63;;;9.63;;
74080;SDS011;62438;52.228;6.864;2022-12-11T05:15:28;40.75;;;10.55;;
74080;SDS011;62438;52.228;6.864;2022-12-11T05:17:28;38.45;;;10.23;;
74080;SDS011;62438;52.228;6.864;2022-12-11T05:19:29;34.17;;;10.65;;
74080;SDS011;62438;52.228;6.864;2022-12-11T05:21:29;39.42;;;10.52;;
74080;SDS011;62438;52.228;6.864;2022-12-11T05:23:30;42.13;;;10.13;;
74080;SDS011;62438;52.228;6.864;2022-12-11T05:25:30;42.90;;;10.85;;
74080;SDS011;62438;52.228;6.864;2022-12-11T05:27:31;34.72;;;9.77;;
74080;SDS011;62438;52.228;6.864;2022-12-11T05:29:32;34.08;;;9.35;;
74080;SDS011;62438;52.228;6.864;2022-12-11T05:31:32;35.03;;;10.05;;
74080;SDS011;62438;52.228;6.864;2022-12-11T05:33:33;35.88;;;10.18;;
74080;SDS011;62438;52.228;6.864;2022-12-11T05:35:33;43.03;;;10.65;;
74080;SDS011;62438;52.228;6.864;2022-12-11T05:37:34;42.30;;;10.73;;
74080;SDS011;62438;52.228;6.864;2022-12-11T05:39:34;38.92;;;10.30;;
74080;SDS011;62438;52.228;6.864;2022-12-11T05:41:35;41.85;;;10.52;;
74080;SDS011;62438;52.228;6.864;2022-12-11T05:43:35;37.92;;;9.57;;
74080;SDS011;62438;52.228;6.864;2022-12-11T05:45:36;41.33;;;9.55;;
74080;SDS011;62438;52.228;6.864;2022-12-11T05:47:36;36.85;;;9.98;;
74080;SDS011;62438;52.228;6.864;2022-12-11T05:49:37;37.45;;;9.80;;
74080;SDS011;62438;52.228;6.864;2022-12-11T05:51:37;29.55;;;7.90;;
74080;SDS011;62438;52.228;6.864;2022-12-11T05:53:39;41.42;;;10.73;;
74080;SDS011;62438;52.228;6.864;2022-12-11T05:55:41;34.45;;;10.00;;
74080;SDS011;62438;52.228;6.864;2022-12-11T05:57:42;41.53;;;10.50;;
74080;SDS011;62438;52.228;6.864;2022-12-11T05:59:43;40.45;;;9.98;;
74080;SDS011;62438;52.228;6.864;2022-12-11T06:01:44;35.70;;;8.90;;
74080;SDS011;62438;52.228;6.864;2022-12-11T06:03:44;38.47;;;9.35;;
74080;SDS011;62438;52.228;6.864;2022-12-11T06:05:45;37.00;;;9.23;;
74080;SDS011;62438;52.228;6.864;2022-12-11T06:07:45;37.85;;;9.18;;
74080;SDS011;62438;52.228;6.864;2022-12-11T06:09:46;34.30;;;10.20;;
74080;SDS011;62438;52.228;6.864;2022-12-11T06:11:46;38.00;;;10.38;;
74080;SDS011;62438;52.228;6.864;2022-12-11T06:13:47;34.85;;;10.13;;
74080;SDS011;62438;52.228;6.864;2022-12-11T06:15:47;29.55;;;9.07;;
74080;SDS011;62438;52.228;6.864;2022-12-11T06:17:48;40.67;;;9.75;;
74080;SDS011;62438;52.228;6.864;2022-12-11T06:19:48;37.92;;;10.15;;
74080;SDS011;62438;52.228;6.864;2022-12-11T06:21:48;37.10;;;9.70;;
74080;SDS011;62438;52.228;6.864;2022-12-11T06:23:50;40.78;;;9.68;;
74080;SDS011;62438;52.228;6.864;2022-12-11T06:25:52;35.05;;;9.32;;
74080;SDS011;62438;52.228;6.864;2022-12-11T06:27:53;33.05;;;9.07;;
74080;SDS011;62438;52.228;6.864;2022-12-11T06:29:53;38.97;;;8.75;;
74080;SDS011;62438;52.228;6.864;2022-12-11T06:31:54;34.33;;;9.55;;
74080;SDS011;62438;52.228;6.864;2022-12-11T06:33:55;32.13;;;8.40;;
74080;SDS011;62438;52.228;6.864;2022-12-11T06:35:55;42.13;;;10.65;;
74080;SDS011;62438;52.228;6.864;2022-12-11T06:37:55;31.83;;;9.70;;
74080;SDS011;62438;52.228;6.864;2022-12-11T06:39:56;29.33;;;7.57;;
74080;SDS011;62438;52.228;6.864;2022-12-11T06:41:56;35.15;;;10.02;;
74080;SDS011;62438;52.228;6.864;2022-12-11T06:43:57;35.63;;;9.25;;
74080;SDS011;62438;52.228;6.864;2022-12-11T06:45:57;36.90;;;10.00;;
74080;SDS011;62438;52.228;6.864;2022-12-11T06:47:58;33.85;;;10.38;;
74080;SDS011;62438;52.228;6.864;2022-12-11T06:49:58;36.05;;;9.10;;
74080;SDS011;62438;52.228;6.864;2022-12-11T06:52:00;43.15;;;10.88;;
74080;SDS011;62438;52.228;6.864;2022-12-11T06:54:00;36.40;;;9.50;;
74080;SDS011;62438;52.228;6.864;2022-12-11T06:56:04;41.47;;;9.00;;
74080;SDS011;62438;52.228;6.864;2022-12-11T06:58:07;38.42;;;9.25;;
74080;SDS011;62438;52.228;6.864;2022-12-11T07:00:08;41.70;;;9.85;;
74080;SDS011;62438;52.228;6.864;2022-12-11T07:02:13;37.25;;;9.93;;
74080;SDS011;62438;52.228;6.864;2022-12-11T07:04:15;36.03;;;9.70;;
74080;SDS011;62438;52.228;6.864;2022-12-11T07:06:15;42.10;;;9.88;;
74080;SDS011;62438;52.228;6.864;2022-12-11T07:08:16;40.10;;;9.10;;
74080;SDS011;62438;52.228;6.864;2022-12-11T07:10:16;38.70;;;9.63;;
74080;SDS011;62438;52.228;6.864;2022-12-11T07:12:17;38.08;;;9.52;;
74080;SDS011;62438;52.228;6.864;2022-12-11T07:14:18;44.22;;;10.20;;
74080;SDS011;62438;52.228;6.864;2022-12-11T07:16:18;43.47;;;11.30;;
74080;SDS011;62438;52.228;6.864;2022-12-11T07:18:19;45.75;;;12.18;;
74080;SDS011;62438;52.228;6.864;2022-12-11T07:20:19;39.05;;;9.82;;
74080;SDS011;62438;52.228;6.864;2022-12-11T07:22:19;40.25;;;10.95;;
74080;SDS011;62438;52.228;6.864;2022-12-11T07:24:20;38.30;;;10.00;;
74080;SDS011;62438;52.228;6.864;2022-12-11T07:26:21;48.80;;;13.55;;
74080;SDS011;62438;52.228;6.864;2022-12-11T07:28:21;42.40;;;11.82;;
74080;SDS011;62438;52.228;6.864;2022-12-11T07:30:22;43.35;;;11.55;;
74080;SDS011;62438;52.228;6.864;2022-12-11T07:32:22;39.85;;;9.93;;
74080;SDS011;62438;52.228;6.864;2022-12-11T07:34:22;37.40;;;9.70;;
74080;SDS011;62438;52.228;6.864;2022-12-11T07:36:23;34.60;;;9.75;;
74080;SDS011;62438;52.228;6.864;2022-12-11T07:38:24;41.97;;;9.65;;
74080;SDS011;62438;52.228;6.864;2022-12-11T07:40:24;44.70;;;10.50;;
74080;SDS011;62438;52.228;6.864;2022-12-11T07:42:24;39.90;;;9.63;;
74080;SDS011;62438;52.228;6.864;2022-12-11T07:44:25;36.67;;;9.88;;
74080;SDS011;62438;52.228;6.864;2022-12-11T07:46:26;35.47;;;9.80;;
74080;SDS011;62438;52.228;6.864;2022-12-11T07:48:28;38.13;;;9.60;;
74080;SDS011;62438;52.228;6.864;2022-12-11T07:50:29;38.72;;;8.85;;
74080;SDS011;62438;52.228;6.864;2022-12-11T07:52:29;37.92;;;10.20;;
74080;SDS011;62438;52.228;6.864;2022-12-11T07:54:31;40.70;;;10.23;;
74080;SDS011;62438;52.228;6.864;2022-12-11T07:56:32;31.95;;;9.43;;
74080;SDS011;62438;52.228;6.864;2022-12-11T07:58:33;35.20;;;10.60;;
74080;SDS011;62438;52.228;6.864;2022-12-11T08:00:34;37.88;;;9.93;;
74080;SDS011;62438;52.228;6.864;2022-12-11T08:02:34;45.85;;;11.77;;
74080;SDS011;62438;52.228;6.864;2022-12-11T08:04:36;36.35;;;10.27;;
74080;SDS011;62438;52.228;6.864;2022-12-11T08:06:37;44.67;;;10.23;;
74080;SDS011;62438;52.228;6.864;2022-12-11T08:08:39;41.00;;;10.27;;
74080;SDS011;62438;52.228;6.864;2022-12-11T08:10:41;37.47;;;10.93;;
74080;SDS011;62438;52.228;6.864;2022-12-11T08:12:41;46.17;;;11.30;;
74080;SDS011;62438;52.228;6.864;2022-12-11T08:14:42;38.50;;;10.45;;
74080;SDS011;62438;52.228;6.864;2022-12-11T08:16:42;40.28;;;10.40;;
74080;SDS011;62438;52.228;6.864;2022-12-11T08:18:44;35.72;;;10.75;;
74080;SDS011;62438;52.228;6.864;2022-12-11T08:20:45;42.28;;;10.55;;
74080;SDS011;62438;52.228;6.864;2022-12-11T08:22:46;31.58;;;10.02;;
74080;SDS011;62438;52.228;6.864;2022-12-11T08:24:46;36.92;;;9.57;;
74080;SDS011;62438;52.228;6.864;2022-12-11T08:26:46;38.78;;;10.85;;
74080;SDS011;62438;52.228;6.864;2022-12-11T08:28:47;38.60;;;10.07;;
74080;SDS011;62438;52.228;6.864;2022-12-11T08:30:48;41.17;;;11.38;;
74080;SDS011;62438;52.228;6.864;2022-12-11T08:32:48;41.83;;;10.43;;
74080;SDS011;62438;52.228;6.864;2022-12-11T08:34:49;40.75;;;9.77;;
74080;SDS011;62438;52.228;6.864;2022-12-11T08:36:50;46.25;;;11.05;;
74080;SDS011;62438;52.228;6.864;2022-12-11T08:38:51;39.97;;;10.80;;
74080;SDS011;62438;52.228;6.864;2022-12-11T08:40:54;40.00;;;9.32;;
74080;SDS011;62438;52.228;6.864;2022-12-11T08:42:54;40.97;;;11.40;;
74080;SDS011;62438;52.228;6.864;2022-12-11T08:44:54;44.15;;;9.30;;
74080;SDS011;62438;52.228;6.864;2022-12-11T08:46:55;37.42;;;10.85;;
74080;SDS011;62438;52.228;6.864;2022-12-11T08:48:56;37.53;;;10.30;;
74080;SDS011;62438;52.228;6.864;2022-12-11T08:51:00;37.10;;;10.40;;
74080;SDS011;62438;52.228;6.864;2022-12-11T08:53:01;38.25;;;10.13;;
74080;SDS011;62438;52.228;6.864;2022-12-11T08:55:01;37.55;;;10.43;;
74080;SDS011;62438;52.228;6.864;2022-12-11T08:57:02;35.88;;;9.48;;
74080;SDS011;62438;52.228;6.864;2022-12-11T08:59:03;38.80;;;9.45;;
74080;SDS011;62438;52.228;6.864;2022-12-11T09:01:10;37.65;;;10.32;;
74080;SDS011;62438;52.228;6.864;2022-12-11T09:03:12;40.00;;;9.68;;
74080;SDS011;62438;52.228;6.864;2022-12-11T09:05:12;34.47;;;9.00;;
74080;SDS011;62438;52.228;6.864;2022-12-11T09:07:12;32.33;;;9.15;;
74080;SDS011;62438;52.228;6.864;2022-12-11T09:09:13;39.60;;;9.27;;
74080;SDS011;62438;52.228;6.864;2022-12-11T09:11:17;42.60;;;10.68;;
74080;SDS011;62438;52.228;6.864;2022-12-11T09:13:19;39.33;;;10.48;;
74080;SDS011;62438;52.228;6.864;2022-12-11T09:15:20;30.95;;;9.77;;
74080;SDS011;62438;52.228;6.864;2022-12-11T09:17:20;44.70;;;12.15;;
74080;SDS011;62438;52.228;6.864;2022-12-11T09:19:21;37.40;;;11.80;;
74080;SDS011;62438;52.228;6.864;2022-12-11T09:21:22;38.78;;;11.20;;
74080;SDS011;62438;52.228;6.864;2022-12-11T09:23:27;40.63;;;13.45;;
74080;SDS011;62438;52.228;6.864;2022-12-11T09:25:28;38.10;;;11.88;;
74080;SDS011;62438;52.228;6.864;2022-12-11T09:27:28;44.38;;;11.80;;
74080;SDS011;62438;52.228;6.864;2022-12-11T09:29:29;41.25;;;11.50;;
74080;SDS011;62438;52.228;6.864;2022-12-11T09:31:30;41.20;;;11.18;;
74080;SDS011;62438;52.228;6.864;2022-12-11T09:33:32;42.40;;;10.38;;
74080;SDS011;62438;52.228;6.864;2022-12-11T09:35:32;39.53;;;10.60;;
74080;SDS011;62438;52.228;6.864;2022-12-11T09:37:33;41.47;;;10.90;;
74080;SDS011;62438;52.228;6.864;2022-12-11T09:39:34;43.83;;;10.95;;
74080;SDS011;62438;52.228;6.864;2022-12-11T09:41:36;42.83;;;11.68;;
74080;SDS011;62438;52.228;6.864;2022-12-11T09:46:12;41.58;;;10.73;;
74080;SDS011;62438;52.228;6.864;2022-12-11T09:48:19;34.10;;;10.48;;
74080;SDS011;62438;52.228;6.864;2022-12-11T09:50:24;45.10;;;10.25;;
74080;SDS011;62438;52.228;6.864;2022-12-11T09:52:33;39.00;;;11.20;;
74080;SDS011;62438;52.228;6.864;2022-12-11T09:54:55;51.95;;;12.65;;
74080;SDS011;62438;52.228;6.864;2022-12-11T09:57:04;42.88;;;11.68;;
74080;SDS011;62438;52.228;6.864;2022-12-11T09:59:30;40.28;;;11.75;;
74080;SDS011;62438;52.228;6.864;2022-12-11T10:02:02;34.08;;;11.40;;
74080;SDS011;62438;52.228;6.864;2022-12-11T10:13:47;37.55;;;11.38;;
74080;SDS011;62438;52.228;6.864;2022-12-11T10:18:15;37.67;;;10.27;;
74080;SDS011;62438;52.228;6.864;2022-12-11T10:20:25;38.50;;;10.38;;
74080;SDS011;62438;52.228;6.864;2022-12-11T10:22:30;40.72;;;10.38;;
74080;SDS011;62438;52.228;6.864;2022-12-11T10:24:33;43.28;;;11.43;;
74080;SDS011;62438;52.228;6.864;2022-12-11T10:26:41;42.40;;;11.15;;
74080;SDS011;62438;52.228;6.864;2022-12-11T10:28:41;37.72;;;11.65;;
74080;SDS011;62438;52.228;6.864;2022-12-11T10:30:57;45.50;;;12.82;;
74080;SDS011;62438;52.228;6.864;2022-12-11T10:35:16;43.95;;;11.90;;
74080;SDS011;62438;52.228;6.864;2022-12-11T10:37:19;43.13;;;12.32;;
74080;SDS011;62438;52.228;6.864;2022-12-11T10:39:20;46.13;;;12.10;;
74080;SDS011;62438;52.228;6.864;2022-12-11T10:41:23;47.33;;;12.48;;
74080;SDS011;62438;52.228;6.864;2022-12-11T10:43:37;44.85;;;12.23;;
74080;SDS011;62438;52.228;6.864;2022-12-11T10:45:48;41.95;;;11.52;;
74080;SDS011;62438;52.228;6.864;2022-12-11T10:47:49;42.75;;;12.45;;
74080;SDS011;62438;52.228;6.864;2022-12-11T10:50:01;41.83;;;12.48;;
74080;SDS011;62438;52.228;6.864;2022-12-11T10:52:17;37.15;;;11.25;;
74080;SDS011;62438;52.228;6.864;2022-12-11T10:54:34;39.70;;;10.02;;
74080;SDS011;62438;52.228;6.864;2022-12-11T10:56:46;43.88;;;12.40;;
74080;SDS011;62438;52.228;6.864;2022-12-11T10:58:48;44.83;;;12.70;;
74080;SDS011;62438;52.228;6.864;2022-12-11T11:01:12;42.95;;;12.38;;
74080;SDS011;62438;52.228;6.864;2022-12-11T11:03:22;45.08;;;12.35;;
74080;SDS011;62438;52.228;6.864;2022-12-11T11:05:30;46.55;;;11.82;;
74080;SDS011;62438;52.228;6.864;2022-12-11T11:07:33;49.90;;;12.43;;
74080;SDS011;62438;52.228;6.864;2022-12-11T11:09:34;45.67;;;12.85;;
74080;SDS011;62438;52.228;6.864;2022-12-11T11:11:36;46.88;;;12.93;;
74080;SDS011;62438;52.228;6.864;2022-12-11T11:13:37;45.08;;;11.93;;
74080;SDS011;62438;52.228;6.864;2022-12-11T11:15:37;42.00;;;11.48;;
74080;SDS011;62438;52.228;6.864;2022-12-11T11:17:51;41.15;;;12.35;;
74080;SDS011;62438;52.228;6.864;2022-12-11T11:19:56;44.15;;;12.43;;
74080;SDS011;62438;52.228;6.864;2022-12-11T11:22:07;46.38;;;11.40;;
74080;SDS011;62438;52.228;6.864;2022-12-11T11:26:37;53.38;;;15.38;;
74080;SDS011;62438;52.228;6.864;2022-12-11T11:28:39;43.42;;;14.23;;
74080;SDS011;62438;52.228;6.864;2022-12-11T11:31:02;43.10;;;12.10;;
74080;SDS011;62438;52.228;6.864;2022-12-11T11:33:12;46.15;;;12.85;;
74080;SDS011;62438;52.228;6.864;2022-12-11T11:35:24;42.15;;;11.52;;
74080;SDS011;62438;52.228;6.864;2022-12-11T11:37:30;40.33;;;13.00;;
74080;SDS011;62438;52.228;6.864;2022-12-11T11:39:33;40.35;;;13.30;;
74080;SDS011;62438;52.228;6.864;2022-12-11T11:41:39;40.03;;;13.25;;
74080;SDS011;62438;52.228;6.864;2022-12-11T11:43:47;43.13;;;12.95;;
74080;SDS011;62438;52.228;6.864;2022-12-11T11:45:52;34.95;;;11.85;;
74080;SDS011;62438;52.228;6.864;2022-12-11T11:50:21;51.50;;;14.27;;
74080;SDS011;62438;52.228;6.864;2022-12-11T11:52:36;40.58;;;13.07;;
74080;SDS011;62438;52.228;6.864;2022-12-11T11:54:48;36.75;;;12.23;;
74080;SDS011;62438;52.228;6.864;2022-12-11T11:59:40;42.47;;;12.98;;
74080;SDS011;62438;52.228;6.864;2022-12-11T12:01:50;44.05;;;12.88;;
74080;SDS011;62438;52.228;6.864;2022-12-11T12:03:54;43.85;;;12.60;;
74080;SDS011;62438;52.228;6.864;2022-12-11T12:06:03;36.38;;;11.25;;
74080;SDS011;62438;52.228;6.864;2022-12-11T12:13:04;40.17;;;11.60;;
74080;SDS011;62438;52.228;6.864;2022-12-11T12:15:14;39.92;;;12.63;;
74080;SDS011;62438;52.228;6.864;2022-12-11T12:34:31;37.03;;;11.40;;
74080;SDS011;62438;52.228;6.864;2022-12-11T12:39:40;35.33;;;10.75;;
74080;SDS011;62438;52.228;6.864;2022-12-11T12:48:21;26.23;;;9.20;;
74080;SDS011;62438;52.228;6.864;2022-12-11T12:50:24;27.58;;;9.90;;
74080;SDS011;62438;52.228;6.864;2022-12-11T12:52:35;26.92;;;9.18;;
74080;SDS011;62438;52.228;6.864;2022-12-11T12:54:37;26.13;;;9.68;;
74080;SDS011;62438;52.228;6.864;2022-12-11T12:56:40;27.95;;;9.82;;
74080;SDS011;62438;52.228;6.864;2022-12-11T12:58:44;28.00;;;10.55;;
74080;SDS011;62438;52.228;6.864;2022-12-11T13:00:45;25.08;;;9.27;;
74080;SDS011;62438;52.228;6.864;2022-12-11T13:02:49;31.77;;;10.02;;
74080;SDS011;62438;52.228;6.864;2022-12-11T13:04:57;27.73;;;10.43;;
74080;SDS011;62438;52.228;6.864;2022-12-11T13:07:09;21.33;;;8.40;;
74080;SDS011;62438;52.228;6.864;2022-12-11T13:09:25;28.27;;;9.32;;
74080;SDS011;62438;52.228;6.864;2022-12-11T13:11:30;24.27;;;8.13;;
74080;SDS011;62438;52.228;6.864;2022-12-11T13:13:36;26.88;;;9.25;;
74080;SDS011;62438;52.228;6.864;2022-12-11T13:15:39;28.20;;;9.88;;
74080;SDS011;62438;52.228;6.864;2022-12-11T13:17:44;25.65;;;8.43;;
74080;SDS011;62438;52.228;6.864;2022-12-11T13:19:44;29.73;;;10.35;;
74080;SDS011;62438;52.228;6.864;2022-12-11T13:26:27;26.90;;;9.85;;
74080;SDS011;62438;52.228;6.864;2022-12-11T13:28:31;24.50;;;8.32;;
74080;SDS011;62438;52.228;6.864;2022-12-11T13:30:37;25.70;;;9.18;;
74080;SDS011;62438;52.228;6.864;2022-12-11T13:32:38;27.45;;;10.20;;